createdAt,value
2017-09-23T00:00:22.721Z,24.37
2017-09-23T00:02:50.319Z,23.33
2017-09-23T00:05:17.954Z,20.20
2017-09-23T00:07:46.301Z,17.90
2017-09-23T00:10:13.881Z,18.03
2017-09-23T00:12:41.477Z,26.50
2017-09-23T00:15:09.878Z,25.53
2017-09-23T00:17:37.475Z,24.77
2017-09-23T00:20:05.073Z,25.90
2017-09-23T00:22:33.418Z,23.20
2017-09-23T00:25:00.997Z,24.07
2017-09-23T00:27:28.675Z,19.03
2017-09-23T00:29:57.187Z,26.67
2017-09-23T00:32:24.791Z,22.67
2017-09-23T00:34:52.351Z,33.63
2017-09-23T00:37:19.941Z,37.40
2017-09-23T00:39:48.274Z,37.17
2017-09-23T00:42:15.821Z,31.30
2017-09-23T01:01:42.890Z,31.52
2017-09-23T01:04:10.454Z,31.30
2017-09-23T01:06:38.028Z,29.77
2017-09-23T01:09:05.588Z,30.73
2017-09-23T01:11:33.149Z,30.50
2017-09-23T01:14:00.846Z,33.80
2017-09-23T01:16:28.451Z,30.60
2017-09-23T01:18:56.003Z,34.73
2017-09-23T01:21:23.591Z,27.53
2017-09-23T01:23:51.193Z,28.10
2017-09-23T01:26:18.791Z,29.60
2017-09-23T01:28:46.359Z,31.13
2017-09-23T01:31:13.961Z,37.53
2017-09-23T01:33:41.556Z,33.17
2017-09-23T01:36:09.906Z,33.83
2017-09-23T01:38:37.523Z,39.07
2017-09-23T01:41:05.083Z,35.73
2017-09-23T01:43:32.682Z,37.20
2017-09-23T01:46:00.258Z,38.03
2017-09-23T01:48:27.866Z,34.00
2017-09-23T01:50:55.703Z,45.07
2017-09-23T01:53:23.269Z,43.60
2017-09-23T01:55:51.625Z,37.83
2017-09-23T01:58:19.203Z,34.83
2017-09-23T02:00:46.787Z,39.90
2017-09-23T02:03:15.176Z,44.67
2017-09-23T02:05:42.744Z,44.37
2017-09-23T02:08:10.335Z,43.43
2017-09-23T02:10:37.913Z,46.20
2017-09-23T02:13:05.498Z,43.60
2017-09-23T02:15:33.890Z,48.03
2017-09-23T02:18:02.233Z,47.03
2017-09-23T02:20:29.793Z,44.33
2017-09-23T02:22:57.346Z,45.53
2017-09-23T02:25:24.920Z,43.80
2017-09-23T02:27:52.506Z,45.50
2017-09-23T02:30:20.850Z,47.60
2017-09-23T02:32:48.462Z,50.23
2017-09-23T02:35:16.798Z,50.33
2017-09-23T02:37:44.367Z,53.07
2017-09-23T02:40:12.710Z,48.57
2017-09-23T02:42:40.279Z,49.40
2017-09-23T02:45:07.849Z,55.33
2017-09-23T02:47:36.193Z,48.77
2017-09-23T02:50:03.779Z,50.63
2017-09-23T02:52:31.338Z,50.50
2017-09-23T02:54:58.926Z,51.77
2017-09-23T02:57:27.273Z,47.73
2017-09-23T02:59:54.919Z,47.07
2017-09-23T03:02:22.514Z,53.23
2017-09-23T03:04:50.067Z,50.40
2017-09-23T03:07:18.566Z,59.00
2017-09-23T03:09:46.135Z,55.53
2017-09-23T03:12:14.467Z,52.33
2017-09-23T03:26:23.799Z,57.13
2017-09-23T03:28:51.363Z,63.73
2017-09-23T03:31:18.977Z,62.57
2017-09-23T03:33:46.570Z,67.30
2017-09-23T03:36:14.275Z,62.83
2017-09-23T03:38:41.832Z,59.90
2017-09-23T03:41:09.431Z,65.53
2017-09-23T03:43:36.990Z,62.63
2017-09-23T03:46:04.575Z,67.90
2017-09-23T03:48:32.151Z,68.40
2017-09-23T03:51:01.024Z,66.10
2017-09-23T03:53:28.595Z,58.23
2017-09-23T03:55:56.193Z,56.17
2017-09-23T03:58:23.779Z,66.73
2017-09-23T04:00:52.121Z,66.20
2017-09-23T04:03:19.742Z,65.73
2017-09-23T04:05:47.311Z,60.27
2017-09-23T04:08:14.889Z,61.23
2017-09-23T04:10:42.474Z,64.57
2017-09-23T04:13:38.054Z,62.60
2017-09-23T04:16:05.607Z,69.37
2017-09-23T04:18:33.193Z,61.17
2017-09-23T04:21:00.774Z,69.03
2017-09-23T04:23:29.107Z,72.63
2017-09-23T04:25:56.814Z,73.90
2017-09-23T04:28:24.382Z,72.30
2017-09-23T04:30:51.951Z,70.67
2017-09-23T04:33:19.551Z,83.73
2017-09-23T04:35:47.132Z,82.63
2017-09-23T04:38:14.738Z,79.40
2017-09-23T04:40:43.132Z,71.60
2017-09-23T04:43:11.511Z,83.50
2017-09-23T04:45:39.847Z,77.43
2017-09-23T04:48:07.414Z,79.87
2017-09-23T04:50:35.005Z,103.23
2017-09-23T04:53:02.572Z,108.30
2017-09-23T04:55:30.909Z,111.33
2017-09-23T04:57:58.546Z,103.57
2017-09-23T05:00:26.119Z,97.07
2017-09-23T05:02:53.687Z,98.33
2017-09-23T05:05:21.404Z,92.70
2017-09-23T05:07:49.757Z,79.83
2017-09-23T05:10:17.318Z,82.87
2017-09-23T05:12:44.901Z,84.20
2017-09-23T05:21:19.821Z,75.20
2017-09-23T05:23:47.410Z,76.53
2017-09-23T05:26:14.986Z,71.27
2017-09-23T05:28:42.569Z,74.77
2017-09-23T05:31:10.139Z,78.00
2017-09-23T05:33:38.514Z,73.27
2017-09-23T05:36:06.864Z,77.57
2017-09-23T05:38:34.521Z,70.53
2017-09-23T05:41:02.127Z,82.13
2017-09-23T05:43:30.476Z,69.20
2017-09-23T05:45:58.042Z,76.27
2017-09-23T05:48:25.754Z,72.73
2017-09-23T05:50:53.817Z,75.37
2017-09-23T05:53:21.456Z,73.70
2017-09-23T05:55:49.058Z,70.27
2017-09-23T05:58:16.656Z,72.43
2017-09-23T06:00:44.991Z,67.57
2017-09-23T06:03:12.738Z,64.50
2017-09-23T06:05:41.954Z,65.90
2017-09-23T06:08:09.547Z,67.87
2017-09-23T06:10:37.141Z,65.00
2017-09-23T06:13:04.722Z,63.13
2017-09-23T06:15:33.113Z,64.20
2017-09-23T06:18:11.075Z,69.67
2017-09-23T06:20:38.650Z,68.20
2017-09-23T06:23:06.210Z,64.97
2017-09-23T06:25:33.783Z,72.70
2017-09-23T06:28:01.381Z,65.20
2017-09-23T06:30:29.715Z,64.90
2017-09-23T06:32:57.293Z,59.37
2017-09-23T06:35:24.882Z,60.30
2017-09-23T06:37:53.242Z,59.63
2017-09-23T06:40:20.838Z,51.97
2017-09-23T06:42:49.181Z,52.77
2017-09-23T06:45:16.783Z,49.93
2017-09-23T06:47:44.572Z,53.90
2017-09-23T06:50:12.181Z,51.00
2017-09-23T06:52:39.771Z,53.27
2017-09-23T06:55:08.125Z,54.30
2017-09-23T06:57:35.685Z,61.33
2017-09-23T07:00:03.273Z,59.10
2017-09-23T07:02:31.590Z,50.50
2017-09-23T07:04:59.162Z,54.07
2017-09-23T07:07:26.746Z,54.50
2017-09-23T07:09:54.350Z,45.43
2017-09-23T07:12:21.951Z,43.83
2017-09-23T07:14:49.517Z,47.73
2017-09-23T07:17:17.122Z,42.40
2017-09-23T07:19:44.735Z,48.03
2017-09-23T07:22:13.092Z,45.00
2017-09-23T07:24:40.721Z,44.53
2017-09-23T07:27:08.290Z,48.73
2017-09-23T07:29:35.906Z,47.37
2017-09-23T07:32:04.265Z,45.80
2017-09-23T07:34:31.838Z,44.93
2017-09-23T07:37:00.185Z,47.90
2017-09-23T07:39:27.754Z,47.63
2017-09-23T07:41:55.331Z,42.20
2017-09-23T07:44:22.884Z,49.93
2017-09-23T07:46:50.488Z,39.00
2017-09-23T07:49:18.138Z,40.27
2017-09-23T07:51:45.704Z,44.80
2017-09-23T07:54:13.290Z,47.20
2017-09-23T07:56:40.879Z,45.57
2017-09-23T07:59:08.470Z,44.47
2017-09-23T08:01:36.831Z,39.97
2017-09-23T08:04:04.423Z,54.50
2017-09-23T08:06:32.825Z,40.37
2017-09-23T08:09:00.406Z,44.17
2017-09-23T08:11:28.020Z,42.73
2017-09-23T08:13:56.374Z,41.77
2017-09-23T08:16:23.969Z,42.00
2017-09-23T08:18:51.563Z,41.67
2017-09-23T08:21:19.231Z,38.67
2017-09-23T08:23:46.822Z,44.23
2017-09-23T08:26:14.592Z,42.50
2017-09-23T08:28:42.163Z,41.60
2017-09-23T08:31:09.745Z,36.50
2017-09-23T08:33:38.107Z,37.63
2017-09-23T08:36:05.693Z,35.07
2017-09-23T08:38:33.288Z,36.37
2017-09-23T08:41:00.881Z,34.40
2017-09-23T08:43:29.242Z,34.90
2017-09-23T08:45:56.846Z,34.17
2017-09-23T08:48:25.318Z,34.70
2017-09-23T08:50:52.935Z,35.87
2017-09-23T08:53:20.530Z,34.97
2017-09-23T08:55:48.105Z,33.00
2017-09-23T08:58:16.476Z,35.93
2017-09-23T09:00:44.048Z,32.53
2017-09-23T09:03:11.650Z,31.97
2017-09-23T09:05:39.227Z,33.00
2017-09-23T09:08:06.842Z,33.97
2017-09-23T09:10:35.199Z,32.43
2017-09-23T09:13:12.831Z,36.87
2017-09-23T09:15:41.189Z,36.00
2017-09-23T09:18:09.528Z,40.03
2017-09-23T09:20:37.238Z,38.53
2017-09-23T09:23:04.846Z,46.33
2017-09-23T09:25:32.414Z,45.10
2017-09-23T09:28:00.010Z,40.17
2017-09-23T09:30:27.598Z,40.93
2017-09-23T09:32:56.262Z,34.47
2017-09-23T09:35:23.833Z,39.43
2017-09-23T09:37:51.411Z,33.50
2017-09-23T09:40:19.782Z,33.80
2017-09-23T09:42:47.381Z,32.33
2017-09-23T09:45:14.957Z,33.27
2017-09-23T09:47:42.572Z,35.47
2017-09-23T09:50:10.216Z,38.83
2017-09-23T09:52:37.800Z,37.73
2017-09-23T09:55:06.154Z,38.50
2017-09-23T09:57:33.723Z,37.70
2017-09-23T10:00:01.374Z,37.60
2017-09-23T10:02:28.952Z,33.90
2017-09-23T10:04:57.376Z,37.37
2017-09-23T10:07:24.995Z,34.60
2017-09-23T10:09:52.657Z,38.03
2017-09-23T10:12:20.255Z,38.97
2017-09-23T10:14:48.714Z,40.80
2017-09-23T10:17:16.404Z,35.27
2017-09-23T10:19:44.029Z,34.67
2017-09-23T10:22:11.681Z,34.90
2017-09-23T10:24:39.368Z,34.37
2017-09-23T10:27:06.967Z,33.87
2017-09-23T10:29:35.312Z,34.70
2017-09-23T10:32:04.251Z,33.13
2017-09-23T10:34:31.834Z,31.70
2017-09-23T10:37:02.003Z,35.10
2017-09-23T10:39:31.867Z,35.77
2017-09-23T10:42:00.106Z,35.73
2017-09-23T10:44:28.459Z,35.10
2017-09-23T10:46:56.034Z,33.70
2017-09-23T10:49:23.625Z,34.97
2017-09-23T10:51:51.991Z,35.77
2017-09-23T10:54:20.339Z,34.00
2017-09-23T10:56:47.915Z,34.63
2017-09-23T10:59:15.649Z,32.37
2017-09-23T11:01:43.273Z,33.03
2017-09-23T11:04:10.883Z,33.23
2017-09-23T11:06:38.455Z,36.50
2017-09-23T11:09:06.030Z,33.00
2017-09-23T11:11:33.702Z,31.90
2017-09-23T11:14:01.289Z,31.43
2017-09-23T11:16:29.959Z,34.03
2017-09-23T11:18:57.732Z,33.20
2017-09-23T11:21:26.189Z,40.33
2017-09-23T11:23:53.756Z,33.70
2017-09-23T11:26:21.346Z,35.73
2017-09-23T11:28:49.123Z,39.80
2017-09-23T11:31:17.552Z,36.63
2017-09-23T11:33:45.255Z,34.73
2017-09-23T11:36:13.606Z,33.30
2017-09-23T11:38:42.010Z,32.30
2017-09-23T11:41:10.358Z,35.63
2017-09-23T11:43:37.926Z,34.33
2017-09-23T11:46:05.571Z,35.43
2017-09-23T11:48:33.485Z,37.07
2017-09-23T11:51:01.067Z,35.67
2017-09-23T11:53:29.427Z,36.23
2017-09-23T11:55:57.862Z,36.50
2017-09-23T11:58:25.541Z,34.37
2017-09-23T12:00:53.118Z,33.70
2017-09-23T12:03:20.760Z,34.97
2017-09-23T12:05:48.339Z,35.43
2017-09-23T12:08:15.912Z,30.27
2017-09-23T12:10:43.498Z,32.70
2017-09-23T12:13:11.960Z,32.60
2017-09-23T12:15:39.538Z,31.20
2017-09-23T12:18:07.106Z,34.47
2017-09-23T12:20:35.467Z,31.53
2017-09-23T12:23:03.062Z,29.17
2017-09-23T12:25:31.391Z,33.30
2017-09-23T12:27:58.995Z,30.47
2017-09-23T12:30:27.342Z,30.13
2017-09-23T12:32:54.923Z,28.53
2017-09-23T12:35:22.517Z,29.13
2017-09-23T12:37:50.842Z,26.57
2017-09-23T12:40:18.436Z,28.07
2017-09-23T12:42:46.033Z,27.37
2017-09-23T12:45:13.635Z,28.77
2017-09-23T12:47:41.210Z,28.13
2017-09-23T12:50:08.799Z,31.83
2017-09-23T12:52:37.159Z,27.60
2017-09-23T12:55:04.774Z,29.17
2017-09-23T12:57:32.354Z,29.70
2017-09-23T12:59:59.917Z,29.00
2017-09-23T13:02:27.497Z,28.40
2017-09-23T13:04:55.101Z,30.13
2017-09-23T13:07:23.610Z,29.33
2017-09-23T13:09:51.198Z,29.23
2017-09-23T13:12:18.798Z,30.13
2017-09-23T13:14:46.380Z,29.40
2017-09-23T13:17:14.757Z,26.47
2017-09-23T13:22:34.979Z,25.40
2017-09-23T13:25:02.560Z,25.47
2017-09-23T13:27:30.162Z,23.50
2017-09-23T13:29:57.786Z,24.43
2017-09-23T13:32:25.398Z,24.80
2017-09-23T13:34:52.990Z,27.50
2017-09-23T13:37:21.334Z,25.27
2017-09-23T13:39:48.928Z,25.87
2017-09-23T13:42:17.392Z,25.77
2017-09-23T13:44:44.994Z,25.63
2017-09-23T13:47:12.563Z,27.10
2017-09-23T13:49:40.127Z,28.37
2017-09-23T13:52:07.717Z,27.07
2017-09-23T13:54:35.293Z,30.27
2017-09-23T13:57:02.971Z,30.17
2017-09-23T13:59:30.533Z,32.37
2017-09-23T14:01:58.101Z,30.77
2017-09-23T14:04:25.697Z,29.50
2017-09-23T14:06:53.309Z,30.97
2017-09-23T14:09:20.889Z,30.50
2017-09-23T14:11:48.495Z,29.40
2017-09-23T14:14:16.139Z,26.67
2017-09-23T14:16:44.490Z,27.70
2017-09-23T14:19:12.056Z,26.67
2017-09-23T14:21:39.714Z,28.83
2017-09-23T14:24:08.077Z,27.80
2017-09-23T14:26:35.635Z,28.00
2017-09-23T14:29:03.224Z,28.13
2017-09-23T14:31:30.966Z,27.57
2017-09-23T14:33:58.559Z,28.57
2017-09-23T14:36:26.163Z,29.30
2017-09-23T14:38:53.756Z,27.77
2017-09-23T14:41:21.334Z,27.20
2017-09-23T14:43:49.694Z,29.43
2017-09-23T14:46:17.299Z,26.20
2017-09-23T14:48:45.644Z,25.83
2017-09-23T14:51:13.991Z,25.93
2017-09-23T14:53:41.589Z,25.77
2017-09-23T14:56:09.216Z,26.60
2017-09-23T14:58:36.801Z,25.30
2017-09-23T15:01:04.391Z,22.60
2017-09-23T15:03:31.972Z,26.87
2017-09-23T15:05:59.581Z,24.60
2017-09-23T15:08:27.186Z,26.83
2017-09-23T15:10:54.914Z,24.40
2017-09-23T15:13:22.505Z,30.53
2017-09-23T15:15:50.078Z,29.13
2017-09-23T15:18:17.651Z,32.40
2017-09-23T15:20:45.268Z,26.50
2017-09-23T15:23:12.843Z,28.20
2017-09-23T15:25:40.429Z,25.93
2017-09-23T15:28:08.032Z,24.80
2017-09-23T15:30:35.630Z,25.43
2017-09-23T15:33:03.216Z,29.73
2017-09-23T15:35:31.047Z,26.00
2017-09-23T15:37:58.785Z,26.93
2017-09-23T15:40:26.520Z,29.43
2017-09-23T15:42:54.945Z,71.47
2017-09-23T15:45:22.539Z,40.00
2017-09-23T15:47:50.159Z,34.70
2017-09-23T15:50:17.754Z,31.80
2017-09-23T15:52:45.342Z,26.23
2017-09-23T15:55:12.981Z,26.90
2017-09-23T15:57:40.578Z,30.97
2017-09-23T16:00:08.150Z,25.47
2017-09-23T16:02:35.754Z,26.40
2017-09-23T16:05:03.411Z,30.53
2017-09-23T16:07:31.017Z,28.53
2017-09-23T16:09:58.577Z,29.77
2017-09-23T16:12:26.198Z,26.33
2017-09-23T16:14:53.848Z,27.17
2017-09-23T16:17:22.215Z,24.93
2017-09-23T16:19:50.805Z,23.03
2017-09-23T16:22:18.555Z,23.10
2017-09-23T16:24:46.120Z,25.83
2017-09-23T16:27:13.714Z,22.57
2017-09-23T16:29:41.315Z,23.00
2017-09-23T16:32:08.900Z,23.13
2017-09-23T16:34:36.479Z,22.90
2017-09-23T16:37:04.946Z,30.00
2017-09-23T16:39:32.547Z,21.60
2017-09-23T16:42:00.143Z,23.27
2017-09-23T16:44:27.748Z,27.60
2017-09-23T16:46:56.083Z,30.20
2017-09-23T16:49:23.684Z,30.37
2017-09-23T16:51:52.050Z,29.30
2017-09-23T16:54:19.643Z,31.10
2017-09-23T16:56:48.002Z,27.50
2017-09-23T16:59:15.600Z,31.37
2017-09-23T17:01:43.238Z,33.87
2017-09-23T17:04:11.600Z,34.07
2017-09-23T17:06:39.199Z,31.23
2017-09-23T17:09:07.572Z,33.90
2017-09-23T17:11:35.223Z,32.80
2017-09-23T17:14:03.562Z,32.37
2017-09-23T17:16:31.140Z,31.67
2017-09-23T17:18:58.730Z,35.80
2017-09-23T17:21:27.070Z,35.33
2017-09-23T17:23:54.661Z,35.93
2017-09-23T17:26:22.412Z,42.17
2017-09-23T17:28:49.999Z,40.90
2017-09-23T17:31:18.388Z,38.80
2017-09-23T17:33:46.750Z,37.63
2017-09-23T17:36:14.360Z,44.03
2017-09-23T17:38:41.924Z,48.47
2017-09-23T17:41:09.488Z,45.73
2017-09-23T17:43:37.670Z,48.83
2017-09-23T17:46:05.397Z,47.33
2017-09-23T17:48:33.793Z,125.57
2017-09-23T17:51:01.446Z,195.97
2017-09-23T17:53:29.813Z,122.03
2017-09-23T17:55:58.188Z,73.33
2017-09-23T17:58:25.811Z,72.70
2017-09-23T18:00:53.399Z,51.97
2017-09-23T18:03:20.983Z,55.40
2017-09-23T18:05:49.621Z,51.87
2017-09-23T18:08:17.207Z,48.53
2017-09-23T18:10:44.859Z,48.77
2017-09-23T18:13:12.437Z,47.20
2017-09-23T18:15:40.031Z,53.80
2017-09-23T18:18:08.400Z,48.47
2017-09-23T18:20:36.738Z,54.07
2017-09-23T18:23:04.307Z,51.53
2017-09-23T18:25:31.914Z,54.97
2017-09-23T18:27:59.504Z,59.10
2017-09-23T18:30:27.075Z,52.03
2017-09-23T18:32:54.889Z,49.73
2017-09-23T18:35:23.251Z,54.80
2017-09-23T18:37:50.848Z,56.10
2017-09-23T18:40:19.271Z,49.73
2017-09-23T18:42:46.871Z,56.60
2017-09-23T18:45:14.456Z,54.80
2017-09-23T18:47:42.059Z,53.37
2017-09-23T18:50:09.862Z,49.80
2017-09-23T18:52:38.210Z,50.33
2017-09-23T18:55:05.800Z,48.07
2017-09-23T18:57:33.425Z,54.87
2017-09-23T19:00:01.123Z,47.77
2017-09-23T19:02:28.715Z,49.00
2017-09-23T19:04:56.305Z,52.40
2017-09-23T19:07:23.878Z,51.57
2017-09-23T19:09:52.260Z,53.00
2017-09-23T19:12:19.867Z,51.70
2017-09-23T19:14:48.220Z,51.30
2017-09-23T19:17:16.584Z,51.20
2017-09-23T19:19:44.184Z,58.03
2017-09-23T19:22:11.821Z,55.87
2017-09-23T19:24:39.418Z,64.47
2017-09-23T19:27:07.772Z,57.13
2017-09-23T19:29:35.392Z,53.23
2017-09-23T19:32:02.995Z,42.07
2017-09-23T19:34:30.601Z,49.77
2017-09-23T19:36:58.209Z,45.70
2017-09-23T19:39:25.811Z,52.60
2017-09-23T19:41:54.182Z,55.83
2017-09-23T19:44:22.608Z,62.30
2017-09-23T19:46:50.179Z,59.33
2017-09-23T19:49:17.849Z,55.77
2017-09-23T19:51:45.592Z,52.03
2017-09-23T19:54:13.296Z,46.70
2017-09-23T19:56:40.868Z,45.57
2017-09-23T19:59:08.475Z,51.60
2017-09-23T20:01:36.071Z,51.60
2017-09-23T20:04:03.750Z,51.90
2017-09-23T20:06:32.114Z,48.73
2017-09-23T20:08:59.692Z,52.37
2017-09-23T20:11:27.257Z,50.03
2017-09-23T20:13:55.234Z,49.03
2017-09-23T20:16:22.920Z,54.37
2017-09-23T20:18:50.609Z,49.85
2017-09-23T20:21:18.226Z,57.17
2017-09-23T20:23:46.591Z,50.03
2017-09-23T20:26:14.201Z,57.05
2017-09-23T20:28:41.788Z,67.00
2017-09-23T20:31:09.380Z,57.80
2017-09-23T20:33:36.988Z,57.87
2017-09-23T20:36:04.617Z,61.28
2017-09-23T20:38:32.189Z,62.17
2017-09-23T20:41:00.586Z,51.10
2017-09-23T20:43:28.172Z,55.08
2017-09-23T20:45:55.789Z,61.47
2017-09-23T20:48:23.412Z,77.17
2017-09-23T20:50:50.992Z,67.93
2017-09-23T20:53:18.609Z,62.95
2017-09-23T20:55:47.055Z,70.05
2017-09-23T20:58:14.663Z,63.55
2017-09-23T21:00:42.245Z,68.07
2017-09-23T21:03:09.838Z,53.03
2017-09-23T21:05:38.401Z,70.60
2017-09-23T21:08:06.007Z,58.40
2017-09-23T21:10:33.577Z,69.70
2017-09-23T21:13:01.172Z,71.40
2017-09-23T21:15:28.760Z,64.35
2017-09-23T21:17:56.353Z,61.72
2017-09-23T21:20:24.004Z,54.30
2017-09-23T21:22:52.338Z,55.27
2017-09-23T21:25:20.723Z,68.65
2017-09-23T21:27:48.321Z,67.60
2017-09-23T21:30:15.907Z,63.70
2017-09-23T21:32:43.521Z,62.25
2017-09-23T21:35:11.082Z,55.38
2017-09-23T21:37:38.691Z,73.37
2017-09-23T21:40:06.278Z,67.22
2017-09-23T21:42:33.902Z,69.00
2017-09-23T21:45:01.484Z,60.12
2017-09-23T21:47:29.085Z,55.85
2017-09-23T21:49:56.699Z,60.55
2017-09-23T21:52:24.297Z,60.78
2017-09-23T21:54:51.881Z,77.40
2017-09-23T21:57:19.461Z,62.38
2017-09-23T21:59:47.082Z,70.12
2017-09-23T22:02:14.667Z,73.30
2017-09-23T22:04:42.253Z,79.07
2017-09-23T22:07:10.624Z,73.60
2017-09-23T22:09:38.240Z,89.37
2017-09-23T22:12:05.835Z,69.40
2017-09-23T22:14:33.426Z,75.97
2017-09-23T22:17:01.878Z,75.20
2017-09-23T22:19:29.467Z,69.55
2017-09-23T22:21:57.906Z,69.53
2017-09-23T22:24:25.496Z,72.37
2017-09-23T22:26:53.100Z,69.75
2017-09-23T22:29:20.686Z,70.37
2017-09-23T22:31:48.392Z,69.75
2017-09-23T22:34:16.056Z,65.50
2017-09-23T22:36:43.620Z,74.85
2017-09-23T22:39:12.034Z,69.70
2017-09-23T22:41:40.683Z,75.03
2017-09-23T22:44:08.307Z,67.95
2017-09-23T22:46:35.895Z,76.53
2017-09-23T22:49:04.243Z,66.35
2017-09-23T22:51:31.835Z,76.72
2017-09-23T22:53:59.424Z,66.62
2017-09-23T22:56:27.006Z,67.32
2017-09-23T22:58:54.608Z,78.80
2017-09-23T23:01:22.665Z,85.12
2017-09-23T23:03:50.236Z,68.12
2017-09-23T23:06:17.856Z,66.35
2017-09-23T23:08:45.442Z,80.15
2017-09-23T23:11:13.017Z,68.55
2017-09-23T23:13:40.630Z,60.47
2017-09-23T23:16:08.193Z,65.47
2017-09-23T23:18:35.825Z,61.42
2017-09-23T23:21:03.428Z,62.13
2017-09-23T23:23:30.984Z,63.92
2017-09-23T23:25:58.571Z,65.03
2017-09-23T23:28:26.130Z,64.75
2017-09-23T23:30:53.729Z,60.17
